sensor_id;sensor_type;location;lat;lon;timestamp;temperature;humidity
3202;DHT22;34843;48.744;8.958;2023-08-24T00:01:08;17.50;99.90
3202;DHT22;34843;48.744;8.958;2023-08-24T00:03:35;17.50;99.90
3202;DHT22;34843;48.744;8.958;2023-08-24T00:06:00;17.50;99.90
3202;DHT22;34843;48.744;8.958;2023-08-24T00:08:26;17.50;99.90
3202;DHT22;34843;48.744;8.958;2023-08-24T00:10:52;17.40;99.90
3202;DHT22;34843;48.744;8.958;2023-08-24T00:13:17;17.40;99.90
3202;DHT22;34843;48.744;8.958;2023-08-24T00:15:44;17.40;99.90
3202;DHT22;34843;48.744;8.958;2023-08-24T00:18:10;17.40;99.90
3202;DHT22;34843;48.744;8.958;2023-08-24T00:20:36;17.30;99.90
3202;DHT22;34843;48.744;8.958;2023-08-24T00:23:03;17.30;99.90
3202;DHT22;34843;48.744;8.958;2023-08-24T00:25:30;17.30;99.90
3202;DHT22;34843;48.744;8.958;2023-08-24T00:27:56;17.30;99.90
3202;DHT22;34843;48.744;8.958;2023-08-24T00:30:22;17.30;99.90
3202;DHT22;34843;48.744;8.958;2023-08-24T00:32:48;17.30;99.90
3202;DHT22;34843;48.744;8.958;2023-08-24T00:35:13;17.20;99.90
3202;DHT22;34843;48.744;8.958;2023-08-24T00:37:40;17.20;99.90
3202;DHT22;34843;48.744;8.958;2023-08-24T00:40:07;17.40;99.90
3202;DHT22;34843;48.744;8.958;2023-08-24T00:42:42;17.20;99.90
3202;DHT22;34843;48.744;8.958;2023-08-24T00:45:09;17.10;99.90
3202;DHT22;34843;48.744;8.958;2023-08-24T00:47:36;17.10;99.90
3202;DHT22;34843;48.744;8.958;2023-08-24T00:50:03;17.10;99.90
3202;DHT22;34843;48.744;8.958;2023-08-24T00:52:31;17.00;99.90
3202;DHT22;34843;48.744;8.958;2023-08-24T00:54:58;17.00;99.90
3202;DHT22;34843;48.744;8.958;2023-08-24T00:57:25;17.00;99.90
3202;DHT22;34843;48.744;8.958;2023-08-24T00:59:50;17.00;99.90
3202;DHT22;34843;48.744;8.958;2023-08-24T01:02:16;17.00;99.90
3202;DHT22;34843;48.744;8.958;2023-08-24T01:04:41;16.90;99.90
3202;DHT22;34843;48.744;8.958;2023-08-24T01:07:10;16.90;99.90
3202;DHT22;34843;48.744;8.958;2023-08-24T01:09:36;16.90;99.90
3202;DHT22;34843;48.744;8.958;2023-08-24T01:12:42;16.90;99.90
3202;DHT22;34843;48.744;8.958;2023-08-24T01:18:08;16.80;99.90
3202;DHT22;34843;48.744;8.958;2023-08-24T01:20:37;16.80;99.90
3202;DHT22;34843;48.744;8.958;2023-08-24T01:23:38;16.80;99.90
3202;DHT22;34843;48.744;8.958;2023-08-24T01:26:27;16.80;99.90
3202;DHT22;34843;48.744;8.958;2023-08-24T01:28:52;16.80;99.90
3202;DHT22;34843;48.744;8.958;2023-08-24T01:31:18;17.30;99.90
3202;DHT22;34843;48.744;8.958;2023-08-24T01:33:45;16.80;99.90
3202;DHT22;34843;48.744;8.958;2023-08-24T01:36:12;16.80;99.90
3202;DHT22;34843;48.744;8.958;2023-08-24T01:38:38;16.80;99.90
3202;DHT22;34843;48.744;8.958;2023-08-24T01:41:19;16.70;99.90
3202;DHT22;34843;48.744;8.958;2023-08-24T01:43:52;16.70;99.90
3202;DHT22;34843;48.744;8.958;2023-08-24T01:46:20;16.70;99.90
3202;DHT22;34843;48.744;8.958;2023-08-24T01:48:47;16.70;99.90
3202;DHT22;34843;48.744;8.958;2023-08-24T01:51:14;16.70;99.90
3202;DHT22;34843;48.744;8.958;2023-08-24T01:53:40;16.70;99.90
3202;DHT22;34843;48.744;8.958;2023-08-24T01:56:10;16.70;99.90
3202;DHT22;34843;48.744;8.958;2023-08-24T01:58:36;16.70;99.90
3202;DHT22;34843;48.744;8.958;2023-08-24T02:01:02;16.70;99.90
3202;DHT22;34843;48.744;8.958;2023-08-24T02:03:27;16.70;99.90
3202;DHT22;34843;48.744;8.958;2023-08-24T02:05:53;16.70;99.90
3202;DHT22;34843;48.744;8.958;2023-08-24T02:08:18;16.70;99.90
3202;DHT22;34843;48.744;8.958;2023-08-24T02:10:44;16.70;99.90
3202;DHT22;34843;48.744;8.958;2023-08-24T02:13:09;16.60;99.90
3202;DHT22;34843;48.744;8.958;2023-08-24T02:15:36;16.50;99.90
3202;DHT22;34843;48.744;8.958;2023-08-24T02:18:02;16.50;99.90
3202;DHT22;34843;48.744;8.958;2023-08-24T02:20:28;16.50;99.90
3202;DHT22;34843;48.744;8.958;2023-08-24T02:22:53;16.50;99.90
3202;DHT22;34843;48.744;8.958;2023-08-24T02:25:19;16.50;99.90
3202;DHT22;34843;48.744;8.958;2023-08-24T02:27:44;16.50;99.90
3202;DHT22;34843;48.744;8.958;2023-08-24T02:30:10;16.50;99.90
3202;DHT22;34843;48.744;8.958;2023-08-24T02:32:36;16.50;99.90
3202;DHT22;34843;48.744;8.958;2023-08-24T02:35:01;16.60;99.90
3202;DHT22;34843;48.744;8.958;2023-08-24T02:37:28;16.60;99.90
3202;DHT22;34843;48.744;8.958;2023-08-24T02:39:53;16.60;99.90
3202;DHT22;34843;48.744;8.958;2023-08-24T02:42:19;16.60;99.90
3202;DHT22;34843;48.744;8.958;2023-08-24T02:44:44;16.70;99.90
3202;DHT22;34843;48.744;8.958;2023-08-24T02:47:10;16.70;99.90
3202;DHT22;34843;48.744;8.958;2023-08-24T02:49:35;16.80;99.90
3202;DHT22;34843;48.744;8.958;2023-08-24T02:52:01;16.70;99.90
3202;DHT22;34843;48.744;8.958;2023-08-24T02:54:26;16.60;99.90
3202;DHT22;34843;48.744;8.958;2023-08-24T02:56:53;16.60;99.90
3202;DHT22;34843;48.744;8.958;2023-08-24T02:59:19;16.60;99.90
3202;DHT22;34843;48.744;8.958;2023-08-24T03:01:44;16.50;99.90
3202;DHT22;34843;48.744;8.958;2023-08-24T03:04:10;16.50;99.90
3202;DHT22;34843;48.744;8.958;2023-08-24T03:06:35;16.50;99.90
3202;DHT22;34843;48.744;8.958;2023-08-24T03:09:02;16.50;99.90
3202;DHT22;34843;48.744;8.958;2023-08-24T03:11:29;16.60;99.90
3202;DHT22;34843;48.744;8.958;2023-08-24T03:13:55;16.60;99.90
3202;DHT22;34843;48.744;8.958;2023-08-24T03:16:20;16.60;99.90
3202;DHT22;34843;48.744;8.958;2023-08-24T03:18:46;16.60;99.90
3202;DHT22;34843;48.744;8.958;2023-08-24T03:21:11;16.60;99.90
3202;DHT22;34843;48.744;8.958;2023-08-24T03:23:37;16.50;99.90
3202;DHT22;34843;48.744;8.958;2023-08-24T03:26:02;16.50;99.90
3202;DHT22;34843;48.744;8.958;2023-08-24T03:28:28;16.50;99.90
3202;DHT22;34843;48.744;8.958;2023-08-24T03:30:54;16.50;99.90
3202;DHT22;34843;48.744;8.958;2023-08-24T03:33:21;16.40;99.90
3202;DHT22;34843;48.744;8.958;2023-08-24T03:35:47;16.50;99.90
3202;DHT22;34843;48.744;8.958;2023-08-24T03:38:13;16.50;99.90
3202;DHT22;34843;48.744;8.958;2023-08-24T03:40:39;16.50;99.90
3202;DHT22;34843;48.744;8.958;2023-08-24T03:43:04;16.50;99.90
3202;DHT22;34843;48.744;8.958;2023-08-24T03:45:30;16.60;99.90
3202;DHT22;34843;48.744;8.958;2023-08-24T03:47:56;16.60;99.90
3202;DHT22;34843;48.744;8.958;2023-08-24T03:50:21;16.60;99.90
3202;DHT22;34843;48.744;8.958;2023-08-24T03:52:49;16.60;99.90
3202;DHT22;34843;48.744;8.958;2023-08-24T03:55:15;16.70;99.90
3202;DHT22;34843;48.744;8.958;2023-08-24T03:57:41;16.70;99.90
3202;DHT22;34843;48.744;8.958;2023-08-24T04:00:07;16.70;99.90
3202;DHT22;34843;48.744;8.958;2023-08-24T04:02:37;16.70;99.90
3202;DHT22;34843;48.744;8.958;2023-08-24T04:05:03;16.70;99.90
3202;DHT22;34843;48.744;8.958;2023-08-24T04:07:29;16.70;99.90
3202;DHT22;34843;48.744;8.958;2023-08-24T04:09:54;16.80;99.90
3202;DHT22;34843;48.744;8.958;2023-08-24T04:12:20;16.80;99.90
3202;DHT22;34843;48.744;8.958;2023-08-24T04:14:45;16.90;99.90
3202;DHT22;34843;48.744;8.958;2023-08-24T04:17:11;17.00;99.90
3202;DHT22;34843;48.744;8.958;2023-08-24T04:19:37;17.00;99.90
3202;DHT22;34843;48.744;8.958;2023-08-24T04:22:03;17.00;99.90
3202;DHT22;34843;48.744;8.958;2023-08-24T04:24:29;17.00;99.90
3202;DHT22;34843;48.744;8.958;2023-08-24T04:26:54;17.00;99.90
3202;DHT22;34843;48.744;8.958;2023-08-24T04:29:20;17.00;99.90
3202;DHT22;34843;48.744;8.958;2023-08-24T04:31:45;17.00;99.90
3202;DHT22;34843;48.744;8.958;2023-08-24T04:34:11;17.00;99.90
3202;DHT22;34843;48.744;8.958;2023-08-24T04:36:37;17.00;99.90
3202;DHT22;34843;48.744;8.958;2023-08-24T04:39:02;17.10;99.90
3202;DHT22;34843;48.744;8.958;2023-08-24T04:41:28;17.10;99.90
3202;DHT22;34843;48.744;8.958;2023-08-24T04:43:54;17.10;99.90
3202;DHT22;34843;48.744;8.958;2023-08-24T04:46:20;17.20;99.90
3202;DHT22;34843;48.744;8.958;2023-08-24T04:48:45;17.20;99.90
3202;DHT22;34843;48.744;8.958;2023-08-24T04:51:11;17.20;99.90
3202;DHT22;34843;48.744;8.958;2023-08-24T04:53:36;17.30;99.90
3202;DHT22;34843;48.744;8.958;2023-08-24T04:56:02;17.40;99.90
3202;DHT22;34843;48.744;8.958;2023-08-24T04:58:27;17.40;99.90
3202;DHT22;34843;48.744;8.958;2023-08-24T05:00:53;17.50;99.90
3202;DHT22;34843;48.744;8.958;2023-08-24T05:03:20;17.50;99.90
3202;DHT22;34843;48.744;8.958;2023-08-24T05:05:47;17.70;99.90
3202;DHT22;34843;48.744;8.958;2023-08-24T05:08:12;17.90;99.90
3202;DHT22;34843;48.744;8.958;2023-08-24T05:10:38;18.00;99.90
3202;DHT22;34843;48.744;8.958;2023-08-24T05:13:03;18.00;99.90
3202;DHT22;34843;48.744;8.958;2023-08-24T05:15:29;18.10;99.90
3202;DHT22;34843;48.744;8.958;2023-08-24T05:17:55;18.20;99.90
3202;DHT22;34843;48.744;8.958;2023-08-24T05:20:28;18.30;99.90
3202;DHT22;34843;48.744;8.958;2023-08-24T05:22:54;18.50;99.90
3202;DHT22;34843;48.744;8.958;2023-08-24T05:25:23;19.10;99.90
3202;DHT22;34843;48.744;8.958;2023-08-24T05:27:49;19.30;99.90
3202;DHT22;34843;48.744;8.958;2023-08-24T05:30:14;19.50;99.90
3202;DHT22;34843;48.744;8.958;2023-08-24T05:32:40;19.50;99.90
3202;DHT22;34843;48.744;8.958;2023-08-24T05:35:06;19.30;99.90
3202;DHT22;34843;48.744;8.958;2023-08-24T05:37:32;19.30;99.90
3202;DHT22;34843;48.744;8.958;2023-08-24T05:39:58;19.30;99.90
3202;DHT22;34843;48.744;8.958;2023-08-24T05:42:24;19.50;99.90
3202;DHT22;34843;48.744;8.958;2023-08-24T05:44:50;20.00;99.90
3202;DHT22;34843;48.744;8.958;2023-08-24T05:47:15;19.90;99.90
3202;DHT22;34843;48.744;8.958;2023-08-24T05:49:41;20.20;99.90
3202;DHT22;34843;48.744;8.958;2023-08-24T05:52:06;20.50;99.90
3202;DHT22;34843;48.744;8.958;2023-08-24T05:56:58;20.70;99.90
3202;DHT22;34843;48.744;8.958;2023-08-24T05:59:26;20.70;99.90
3202;DHT22;34843;48.744;8.958;2023-08-24T06:01:52;20.70;99.90
3202;DHT22;34843;48.744;8.958;2023-08-24T06:04:17;20.50;99.90
3202;DHT22;34843;48.744;8.958;2023-08-24T06:06:43;20.50;99.90
3202;DHT22;34843;48.744;8.958;2023-08-24T06:09:09;20.60;99.90
3202;DHT22;34843;48.744;8.958;2023-08-24T06:11:35;20.70;99.90
3202;DHT22;34843;48.744;8.958;2023-08-24T06:14:01;20.70;99.90
3202;DHT22;34843;48.744;8.958;2023-08-24T06:16:28;20.60;99.90
3202;DHT22;34843;48.744;8.958;2023-08-24T06:18:53;20.70;99.90
3202;DHT22;34843;48.744;8.958;2023-08-24T06:21:19;20.80;99.90
3202;DHT22;34843;48.744;8.958;2023-08-24T06:23:44;21.00;99.90
3202;DHT22;34843;48.744;8.958;2023-08-24T06:26:15;21.20;99.90
3202;DHT22;34843;48.744;8.958;2023-08-24T06:28:40;21.30;99.90
3202;DHT22;34843;48.744;8.958;2023-08-24T06:31:06;21.40;99.90
3202;DHT22;34843;48.744;8.958;2023-08-24T06:33:36;21.40;99.90
3202;DHT22;34843;48.744;8.958;2023-08-24T06:36:02;21.50;99.90
3202;DHT22;34843;48.744;8.958;2023-08-24T06:38:31;21.50;99.90
3202;DHT22;34843;48.744;8.958;2023-08-24T06:40:58;21.50;99.90
3202;DHT22;34843;48.744;8.958;2023-08-24T06:43:23;21.40;99.90
3202;DHT22;34843;48.744;8.958;2023-08-24T06:45:49;21.20;99.90
3202;DHT22;34843;48.744;8.958;2023-08-24T06:48:14;21.10;99.90
3202;DHT22;34843;48.744;8.958;2023-08-24T06:50:40;20.90;99.90
3202;DHT22;34843;48.744;8.958;2023-08-24T06:53:06;20.90;99.90
3202;DHT22;34843;48.744;8.958;2023-08-24T06:55:31;21.00;99.90
3202;DHT22;34843;48.744;8.958;2023-08-24T06:57:57;21.10;99.90
3202;DHT22;34843;48.744;8.958;2023-08-24T07:00:23;21.30;99.90
3202;DHT22;34843;48.744;8.958;2023-08-24T07:02:50;21.60;99.90
3202;DHT22;34843;48.744;8.958;2023-08-24T07:05:16;22.30;99.90
3202;DHT22;34843;48.744;8.958;2023-08-24T07:07:45;22.50;99.90
3202;DHT22;34843;48.744;8.958;2023-08-24T07:10:11;22.90;99.90
3202;DHT22;34843;48.744;8.958;2023-08-24T07:12:37;23.00;99.90
3202;DHT22;34843;48.744;8.958;2023-08-24T07:15:06;23.00;99.90
3202;DHT22;34843;48.744;8.958;2023-08-24T07:17:32;23.30;99.90
3202;DHT22;34843;48.744;8.958;2023-08-24T07:19:58;23.90;99.90
3202;DHT22;34843;48.744;8.958;2023-08-24T07:22:23;23.90;99.90
3202;DHT22;34843;48.744;8.958;2023-08-24T07:24:52;24.20;99.90
3202;DHT22;34843;48.744;8.958;2023-08-24T07:27:18;24.30;99.90
3202;DHT22;34843;48.744;8.958;2023-08-24T07:29:44;25.10;99.90
3202;DHT22;34843;48.744;8.958;2023-08-24T07:32:09;26.90;99.90
3202;DHT22;34843;48.744;8.958;2023-08-24T07:34:35;28.90;99.90
3202;DHT22;34843;48.744;8.958;2023-08-24T07:37:00;28.90;99.90
3202;DHT22;34843;48.744;8.958;2023-08-24T07:39:26;29.10;99.90
3202;DHT22;34843;48.744;8.958;2023-08-24T07:41:51;30.10;99.90
3202;DHT22;34843;48.744;8.958;2023-08-24T07:44:17;31.50;99.90
3202;DHT22;34843;48.744;8.958;2023-08-24T07:46:42;32.40;99.90
3202;DHT22;34843;48.744;8.958;2023-08-24T07:49:08;32.90;99.90
3202;DHT22;34843;48.744;8.958;2023-08-24T07:51:34;33.60;99.90
3202;DHT22;34843;48.744;8.958;2023-08-24T07:54:00;34.10;99.90
3202;DHT22;34843;48.744;8.958;2023-08-24T07:56:25;34.40;99.90
3202;DHT22;34843;48.744;8.958;2023-08-24T07:58:51;34.20;99.90
3202;DHT22;34843;48.744;8.958;2023-08-24T08:01:17;33.70;99.90
3202;DHT22;34843;48.744;8.958;2023-08-24T08:03:42;32.40;99.90
3202;DHT22;34843;48.744;8.958;2023-08-24T08:06:08;31.70;99.90
3202;DHT22;34843;48.744;8.958;2023-08-24T08:08:33;31.50;99.90
3202;DHT22;34843;48.744;8.958;2023-08-24T08:11:01;31.30;99.90
3202;DHT22;34843;48.744;8.958;2023-08-24T08:13:27;30.50;99.90
3202;DHT22;34843;48.744;8.958;2023-08-24T08:15:53;29.40;99.90
3202;DHT22;34843;48.744;8.958;2023-08-24T08:18:19;29.30;99.90
3202;DHT22;34843;48.744;8.958;2023-08-24T08:20:45;29.10;99.90
3202;DHT22;34843;48.744;8.958;2023-08-24T08:23:10;29.00;99.90
3202;DHT22;34843;48.744;8.958;2023-08-24T08:25:36;28.60;99.90
3202;DHT22;34843;48.744;8.958;2023-08-24T08:28:01;28.60;99.90
3202;DHT22;34843;48.744;8.958;2023-08-24T08:30:27;28.50;99.90
3202;DHT22;34843;48.744;8.958;2023-08-24T08:32:52;28.50;99.90
3202;DHT22;34843;48.744;8.958;2023-08-24T08:35:21;28.70;99.90
3202;DHT22;34843;48.744;8.958;2023-08-24T08:37:47;28.70;99.90
3202;DHT22;34843;48.744;8.958;2023-08-24T08:40:15;28.40;99.90
3202;DHT22;34843;48.744;8.958;2023-08-24T08:42:40;28.30;99.90
3202;DHT22;34843;48.744;8.958;2023-08-24T08:45:09;28.50;99.90
3202;DHT22;34843;48.744;8.958;2023-08-24T08:47:35;28.60;99.90
3202;DHT22;34843;48.744;8.958;2023-08-24T08:50:02;28.60;99.90
3202;DHT22;34843;48.744;8.958;2023-08-24T08:52:29;28.70;99.90
3202;DHT22;34843;48.744;8.958;2023-08-24T08:54:55;28.70;99.90
3202;DHT22;34843;48.744;8.958;2023-08-24T08:57:22;28.70;99.90
3202;DHT22;34843;48.744;8.958;2023-08-24T08:59:48;28.60;99.90
3202;DHT22;34843;48.744;8.958;2023-08-24T09:02:19;28.30;99.90
3202;DHT22;34843;48.744;8.958;2023-08-24T09:04:45;28.20;99.90
3202;DHT22;34843;48.744;8.958;2023-08-24T09:07:13;28.20;99.90
3202;DHT22;34843;48.744;8.958;2023-08-24T09:09:39;28.20;99.90
3202;DHT22;34843;48.744;8.958;2023-08-24T09:12:06;28.30;99.90
3202;DHT22;34843;48.744;8.958;2023-08-24T09:16:59;28.30;99.90
3202;DHT22;34843;48.744;8.958;2023-08-24T09:19:28;28.30;99.90
3202;DHT22;34843;48.744;8.958;2023-08-24T09:21:57;28.40;99.90
3202;DHT22;34843;48.744;8.958;2023-08-24T09:24:32;28.60;99.90
3202;DHT22;34843;48.744;8.958;2023-08-24T09:26:59;28.70;99.90
3202;DHT22;34843;48.744;8.958;2023-08-24T09:29:24;28.70;99.90
3202;DHT22;34843;48.744;8.958;2023-08-24T09:31:50;28.80;99.90
3202;DHT22;34843;48.744;8.958;2023-08-24T09:34:24;29.00;99.90
3202;DHT22;34843;48.744;8.958;2023-08-24T09:39:17;29.20;99.90
3202;DHT22;34843;48.744;8.958;2023-08-24T09:41:50;29.50;99.90
3202;DHT22;34843;48.744;8.958;2023-08-24T09:44:17;29.70;99.90
3202;DHT22;34843;48.744;8.958;2023-08-24T09:46:43;29.70;99.90
3202;DHT22;34843;48.744;8.958;2023-08-24T09:49:10;29.20;99.90
3202;DHT22;34843;48.744;8.958;2023-08-24T09:51:38;29.20;99.90
3202;DHT22;34843;48.744;8.958;2023-08-24T09:54:06;29.30;99.90
3202;DHT22;34843;48.744;8.958;2023-08-24T09:56:38;29.20;99.90
3202;DHT22;34843;48.744;8.958;2023-08-24T09:59:13;29.30;99.90
3202;DHT22;34843;48.744;8.958;2023-08-24T10:01:47;29.30;99.90
3202;DHT22;34843;48.744;8.958;2023-08-24T10:04:15;29.30;99.90
3202;DHT22;34843;48.744;8.958;2023-08-24T10:06:43;29.30;99.90
3202;DHT22;34843;48.744;8.958;2023-08-24T10:09:17;29.20;99.90
3202;DHT22;34843;48.744;8.958;2023-08-24T10:11:49;29.30;99.90
3202;DHT22;34843;48.744;8.958;2023-08-24T10:14:49;29.30;99.90
3202;DHT22;34843;48.744;8.958;2023-08-24T10:17:17;29.40;99.90
3202;DHT22;34843;48.744;8.958;2023-08-24T10:19:43;29.50;99.90
3202;DHT22;34843;48.744;8.958;2023-08-24T10:22:11;29.70;99.90
3202;DHT22;34843;48.744;8.958;2023-08-24T10:24:37;29.80;99.90
3202;DHT22;34843;48.744;8.958;2023-08-24T10:27:03;29.90;99.90
3202;DHT22;34843;48.744;8.958;2023-08-24T10:29:30;29.80;99.90
3202;DHT22;34843;48.744;8.958;2023-08-24T10:31:55;29.80;99.90
3202;DHT22;34843;48.744;8.958;2023-08-24T10:34:22;29.90;99.90
3202;DHT22;34843;48.744;8.958;2023-08-24T10:36:48;30.00;99.90
3202;DHT22;34843;48.744;8.958;2023-08-24T10:39:15;30.20;99.90
3202;DHT22;34843;48.744;8.958;2023-08-24T10:41:49;30.30;99.90
3202;DHT22;34843;48.744;8.958;2023-08-24T10:44:33;30.30;99.90
3202;DHT22;34843;48.744;8.958;2023-08-24T10:47:19;30.50;99.90
3202;DHT22;34843;48.744;8.958;2023-08-24T10:49:58;30.50;99.90
3202;DHT22;34843;48.744;8.958;2023-08-24T10:52:35;30.50;99.90
3202;DHT22;34843;48.744;8.958;2023-08-24T10:55:03;30.70;99.90
3202;DHT22;34843;48.744;8.958;2023-08-24T10:57:37;30.80;99.90
3202;DHT22;34843;48.744;8.958;2023-08-24T11:00:10;31.00;99.90
3202;DHT22;34843;48.744;8.958;2023-08-24T11:02:43;31.30;99.90
3202;DHT22;34843;48.744;8.958;2023-08-24T11:05:31;31.50;99.90
3202;DHT22;34843;48.744;8.958;2023-08-24T11:07:58;31.70;99.90
3202;DHT22;34843;48.744;8.958;2023-08-24T11:10:47;31.80;99.90
3202;DHT22;34843;48.744;8.958;2023-08-24T11:13:18;31.70;99.90
3202;DHT22;34843;48.744;8.958;2023-08-24T11:15:49;31.70;99.90
3202;DHT22;34843;48.744;8.958;2023-08-24T11:18:30;31.40;99.90
3202;DHT22;34843;48.744;8.958;2023-08-24T11:21:00;31.30;99.90
3202;DHT22;34843;48.744;8.958;2023-08-24T11:23:27;31.20;99.90
3202;DHT22;34843;48.744;8.958;2023-08-24T11:25:55;31.20;99.90
3202;DHT22;34843;48.744;8.958;2023-08-24T11:28:26;31.00;99.90
3202;DHT22;34843;48.744;8.958;2023-08-24T11:30:52;31.20;99.90
3202;DHT22;34843;48.744;8.958;2023-08-24T11:33:34;31.30;99.90
3202;DHT22;34843;48.744;8.958;2023-08-24T11:36:02;31.40;99.90
3202;DHT22;34843;48.744;8.958;2023-08-24T11:38:41;31.60;99.90
3202;DHT22;34843;48.744;8.958;2023-08-24T11:41:14;31.60;99.90
3202;DHT22;34843;48.744;8.958;2023-08-24T11:43:41;31.70;99.90
3202;DHT22;34843;48.744;8.958;2023-08-24T11:46:07;31.80;99.90
3202;DHT22;34843;48.744;8.958;2023-08-24T11:48:33;31.70;99.90
3202;DHT22;34843;48.744;8.958;2023-08-24T11:50:59;31.80;99.90
3202;DHT22;34843;48.744;8.958;2023-08-24T11:53:26;31.90;99.90
3202;DHT22;34843;48.744;8.958;2023-08-24T11:55:55;32.00;99.90
3202;DHT22;34843;48.744;8.958;2023-08-24T11:58:20;32.00;99.90
3202;DHT22;34843;48.744;8.958;2023-08-24T12:00:46;32.10;99.90
3202;DHT22;34843;48.744;8.958;2023-08-24T12:03:13;32.20;99.90
3202;DHT22;34843;48.744;8.958;2023-08-24T12:05:38;32.30;99.90
3202;DHT22;34843;48.744;8.958;2023-08-24T12:08:05;32.30;99.90
3202;DHT22;34843;48.744;8.958;2023-08-24T12:10:31;32.20;99.90
3202;DHT22;34843;48.744;8.958;2023-08-24T12:13:06;32.20;99.90
3202;DHT22;34843;48.744;8.958;2023-08-24T12:15:36;32.30;99.90
3202;DHT22;34843;48.744;8.958;2023-08-24T12:18:14;32.50;99.90
3202;DHT22;34843;48.744;8.958;2023-08-24T12:20:40;32.70;99.90
3202;DHT22;34843;48.744;8.958;2023-08-24T12:23:07;33.00;99.90
3202;DHT22;34843;48.744;8.958;2023-08-24T12:25:43;33.10;99.90
3202;DHT22;34843;48.744;8.958;2023-08-24T12:30:52;33.20;99.90
3202;DHT22;34843;48.744;8.958;2023-08-24T12:33:28;32.90;99.90
3202;DHT22;34843;48.744;8.958;2023-08-24T12:35:55;32.90;99.90
3202;DHT22;34843;48.744;8.958;2023-08-24T12:38:21;33.00;99.90
3202;DHT22;34843;48.744;8.958;2023-08-24T12:40:48;33.00;99.90
3202;DHT22;34843;48.744;8.958;2023-08-24T12:43:13;33.10;99.90
3202;DHT22;34843;48.744;8.958;2023-08-24T12:45:39;33.20;99.90
3202;DHT22;34843;48.744;8.958;2023-08-24T12:48:05;33.10;99.90
3202;DHT22;34843;48.744;8.958;2023-08-24T12:50:35;33.10;99.90
3202;DHT22;34843;48.744;8.958;2023-08-24T12:53:01;32.90;99.90
3202;DHT22;34843;48.744;8.958;2023-08-24T12:55:28;33.00;99.90
3202;DHT22;34843;48.744;8.958;2023-08-24T12:57:53;33.10;99.90
3202;DHT22;34843;48.744;8.958;2023-08-24T13:00:19;33.10;99.90
3202;DHT22;34843;48.744;8.958;2023-08-24T13:02:45;33.20;99.90
3202;DHT22;34843;48.744;8.958;2023-08-24T13:05:11;33.30;99.90
3202;DHT22;34843;48.744;8.958;2023-08-24T13:07:37;33.50;99.90
3202;DHT22;34843;48.744;8.958;2023-08-24T13:10:03;33.70;99.90
3202;DHT22;34843;48.744;8.958;2023-08-24T13:12:30;33.80;99.90
3202;DHT22;34843;48.744;8.958;2023-08-24T13:14:55;34.00;99.90
3202;DHT22;34843;48.744;8.958;2023-08-24T13:17:21;34.10;99.90
3202;DHT22;34843;48.744;8.958;2023-08-24T13:19:46;34.10;99.90
3202;DHT22;34843;48.744;8.958;2023-08-24T13:22:14;34.20;99.90
3202;DHT22;34843;48.744;8.958;2023-08-24T13:24:40;34.20;99.90
3202;DHT22;34843;48.744;8.958;2023-08-24T13:27:08;34.30;99.90
3202;DHT22;34843;48.744;8.958;2023-08-24T13:29:36;34.50;99.90
3202;DHT22;34843;48.744;8.958;2023-08-24T13:32:02;34.80;99.90
3202;DHT22;34843;48.744;8.958;2023-08-24T13:34:28;34.80;99.90
3202;DHT22;34843;48.744;8.958;2023-08-24T13:36:53;34.80;99.90
3202;DHT22;34843;48.744;8.958;2023-08-24T13:39:19;34.80;99.90
3202;DHT22;34843;48.744;8.958;2023-08-24T13:41:44;34.70;99.90
3202;DHT22;34843;48.744;8.958;2023-08-24T13:44:10;34.80;99.90
3202;DHT22;34843;48.744;8.958;2023-08-24T13:46:36;34.80;99.90
3202;DHT22;34843;48.744;8.958;2023-08-24T13:49:01;34.80;99.90
3202;DHT22;34843;48.744;8.958;2023-08-24T13:51:27;34.80;99.90
3202;DHT22;34843;48.744;8.958;2023-08-24T13:53:53;34.90;99.90
3202;DHT22;34843;48.744;8.958;2023-08-24T13:56:19;34.80;99.90
3202;DHT22;34843;48.744;8.958;2023-08-24T13:58:45;34.80;99.90
3202;DHT22;34843;48.744;8.958;2023-08-24T14:01:12;34.80;99.90
3202;DHT22;34843;48.744;8.958;2023-08-24T14:03:38;34.80;99.90
3202;DHT22;34843;48.744;8.958;2023-08-24T14:06:05;34.80;99.90
3202;DHT22;34843;48.744;8.958;2023-08-24T14:08:31;34.80;99.90
3202;DHT22;34843;48.744;8.958;2023-08-24T14:10:56;34.60;99.90
3202;DHT22;34843;48.744;8.958;2023-08-24T14:13:22;34.50;99.90
3202;DHT22;34843;48.744;8.958;2023-08-24T14:15:49;34.40;99.90
3202;DHT22;34843;48.744;8.958;2023-08-24T14:20:42;34.30;99.90
3202;DHT22;34843;48.744;8.958;2023-08-24T14:23:08;34.00;99.90
3202;DHT22;34843;48.744;8.958;2023-08-24T14:25:34;33.80;99.90
3202;DHT22;34843;48.744;8.958;2023-08-24T14:27:59;33.50;99.90
3202;DHT22;34843;48.744;8.958;2023-08-24T14:30:26;33.30;99.90
3202;DHT22;34843;48.744;8.958;2023-08-24T14:32:54;33.20;99.90
3202;DHT22;34843;48.744;8.958;2023-08-24T14:35:20;32.90;99.90
3202;DHT22;34843;48.744;8.958;2023-08-24T14:37:45;32.70;99.90
3202;DHT22;34843;48.744;8.958;2023-08-24T14:40:11;32.50;99.90
3202;DHT22;34843;48.744;8.958;2023-08-24T14:42:40;32.10;99.90
3202;DHT22;34843;48.744;8.958;2023-08-24T14:48:28;31.70;99.90
3202;DHT22;34843;48.744;8.958;2023-08-24T14:50:54;30.20;99.90
3202;DHT22;34843;48.744;8.958;2023-08-24T14:53:19;28.40;99.90
3202;DHT22;34843;48.744;8.958;2023-08-24T14:55:45;26.40;99.90
3202;DHT22;34843;48.744;8.958;2023-08-24T14:58:11;26.30;99.90
3202;DHT22;34843;48.744;8.958;2023-08-24T15:00:36;25.60;99.90
3202;DHT22;34843;48.744;8.958;2023-08-24T15:03:05;25.30;99.90
3202;DHT22;34843;48.744;8.958;2023-08-24T15:05:41;24.90;99.90
3202;DHT22;34843;48.744;8.958;2023-08-24T15:08:10;24.70;99.90
3202;DHT22;34843;48.744;8.958;2023-08-24T15:10:37;24.40;99.90
3202;DHT22;34843;48.744;8.958;2023-08-24T15:13:03;24.30;99.90
3202;DHT22;34843;48.744;8.958;2023-08-24T15:15:29;24.10;99.90
3202;DHT22;34843;48.744;8.958;2023-08-24T15:17:55;24.00;99.90
3202;DHT22;34843;48.744;8.958;2023-08-24T15:22:49;24.20;99.90
3202;DHT22;34843;48.744;8.958;2023-08-24T15:25:15;23.30;99.90
3202;DHT22;34843;48.744;8.958;2023-08-24T15:27:40;24.50;99.90
3202;DHT22;34843;48.744;8.958;2023-08-24T15:30:06;24.70;99.90
3202;DHT22;34843;48.744;8.958;2023-08-24T15:32:32;24.70;99.90
3202;DHT22;34843;48.744;8.958;2023-08-24T15:34:58;24.70;99.90
3202;DHT22;34843;48.744;8.958;2023-08-24T15:37:24;24.70;99.90
3202;DHT22;34843;48.744;8.958;2023-08-24T15:39:50;26.20;99.90
3202;DHT22;34843;48.744;8.958;2023-08-24T15:44:42;24.80;99.90
3202;DHT22;34843;48.744;8.958;2023-08-24T15:47:07;24.80;99.90
3202;DHT22;34843;48.744;8.958;2023-08-24T15:49:33;24.70;99.90
3202;DHT22;34843;48.744;8.958;2023-08-24T15:51:59;24.70;99.90
3202;DHT22;34843;48.744;8.958;2023-08-24T15:54:25;24.50;99.90
3202;DHT22;34843;48.744;8.958;2023-08-24T15:59:18;24.50;99.90
3202;DHT22;34843;48.744;8.958;2023-08-24T16:01:44;24.40;99.90
3202;DHT22;34843;48.744;8.958;2023-08-24T16:04:11;24.40;99.90
3202;DHT22;34843;48.744;8.958;2023-08-24T16:06:36;24.60;99.90
3202;DHT22;34843;48.744;8.958;2023-08-24T16:09:02;25.50;99.90
3202;DHT22;34843;48.744;8.958;2023-08-24T16:11:30;24.50;99.90